createdAt,value
2022-09-06T00:02:33.056Z,50.64
2022-09-06T00:05:07.213Z,50.73
2022-09-06T00:08:02.422Z,50.71
2022-09-06T00:10:35.571Z,50.60
2022-09-06T00:13:09.007Z,51.00
2022-09-06T00:15:42.951Z,50.88
2022-09-06T00:18:15.882Z,51.29
2022-09-06T00:20:48.426Z,51.20
2022-09-06T00:23:21.249Z,51.41
2022-09-06T00:25:53.972Z,51.45
2022-09-06T00:28:28.964Z,51.23
2022-09-06T00:31:10.787Z,51.48
2022-09-06T00:33:43.666Z,51.68
2022-09-06T00:36:16.572Z,51.55
2022-09-06T00:38:49.348Z,51.75
2022-09-06T00:41:22.045Z,52.21
2022-09-06T00:43:55.448Z,52.28
2022-09-06T00:46:32.078Z,51.98
2022-09-06T00:49:08.358Z,51.92
2022-09-06T00:51:41.631Z,52.06
2022-09-06T00:54:14.431Z,52.19
2022-09-06T00:56:47.781Z,52.15
2022-09-06T00:59:20.855Z,51.99
2022-09-06T01:01:55.004Z,51.71
2022-09-06T01:04:28.797Z,51.90
2022-09-06T01:07:07.298Z,51.77
2022-09-06T01:09:56.932Z,51.60
2022-09-06T01:12:39.327Z,51.57
2022-09-06T01:15:28.759Z,51.72
2022-09-06T01:18:18.927Z,51.53
2022-09-06T01:21:20.615Z,51.71
2022-09-06T01:24:17.489Z,51.53
2022-09-06T01:27:20.424Z,51.67
2022-09-06T01:30:01.124Z,51.36
2022-09-06T01:32:42.246Z,51.44
2022-09-06T01:35:22.360Z,51.48
2022-09-06T01:37:55.929Z,51.65
2022-09-06T01:40:29.165Z,51.56
2022-09-06T01:43:02.459Z,51.71
2022-09-06T01:45:45.134Z,51.71
2022-09-06T01:48:25.114Z,51.64
2022-09-06T01:51:11.492Z,51.83
2022-09-06T01:54:01.589Z,51.74
2022-09-06T01:56:44.979Z,51.67
2022-09-06T01:59:34.313Z,51.63
2022-09-06T02:02:13.794Z,51.48
2022-09-06T02:04:50.747Z,51.52
2022-09-06T02:07:27.070Z,51.72
2022-09-06T02:10:07.736Z,51.44
2022-09-06T02:12:44.629Z,51.49
2022-09-06T02:15:23.690Z,51.40
2022-09-06T02:18:03.182Z,51.98
2022-09-06T02:20:42.439Z,51.97
2022-09-06T02:23:17.717Z,51.87
2022-09-06T02:25:55.799Z,51.96
2022-09-06T02:28:28.693Z,51.67
2022-09-06T02:31:03.866Z,51.66
2022-09-06T02:33:39.423Z,51.47
2022-09-06T02:36:12.578Z,51.61
2022-09-06T02:38:46.667Z,51.75
2022-09-06T02:41:23.288Z,51.76
2022-09-06T02:43:56.000Z,51.79
2022-09-06T02:46:29.173Z,52.01
2022-09-06T02:49:04.008Z,51.86
2022-09-06T02:51:38.180Z,52.02
2022-09-06T02:54:11.035Z,51.86
2022-09-06T02:56:43.766Z,51.70
2022-09-06T02:59:16.790Z,51.90
2022-09-06T03:01:49.461Z,51.74
2022-09-06T03:04:23.683Z,51.58
2022-09-06T03:06:57.356Z,51.70
2022-09-06T03:09:30.256Z,51.59
2022-09-06T03:12:03.105Z,51.47
2022-09-06T03:14:37.096Z,51.84
2022-09-06T03:17:09.998Z,51.70
2022-09-06T03:19:43.961Z,52.06
2022-09-06T03:22:16.931Z,51.96
2022-09-06T03:24:49.616Z,52.06
2022-09-06T03:27:22.575Z,51.94
2022-09-06T03:29:55.131Z,52.04
2022-09-06T03:32:27.936Z,52.38
2022-09-06T03:35:02.091Z,52.31
2022-09-06T03:37:34.956Z,52.24
2022-09-06T03:40:09.053Z,52.45
2022-09-06T03:42:42.192Z,51.97
2022-09-06T03:45:15.113Z,52.43
2022-09-06T03:47:50.327Z,52.51
2022-09-06T03:50:24.443Z,52.48
2022-09-06T03:52:57.432Z,52.60
2022-09-06T03:55:30.482Z,53.06
2022-09-06T03:58:03.247Z,52.89
2022-09-06T04:00:36.031Z,52.69
2022-09-06T04:03:08.941Z,52.71
2022-09-06T04:05:46.137Z,52.62
2022-09-06T04:08:18.863Z,53.15
2022-09-06T04:10:52.138Z,53.14
2022-09-06T04:13:28.242Z,53.12
2022-09-06T04:16:01.646Z,52.97
2022-09-06T04:18:34.730Z,53.08
2022-09-06T04:21:08.902Z,52.90
2022-09-06T04:23:41.846Z,52.99
2022-09-06T04:26:14.373Z,53.89
2022-09-06T04:28:47.321Z,53.91
2022-09-06T04:31:20.049Z,53.65
2022-09-06T04:33:53.149Z,53.44
2022-09-06T04:36:27.299Z,53.50
2022-09-06T04:38:59.946Z,53.70
2022-09-06T04:41:33.035Z,53.56
2022-09-06T04:44:06.185Z,52.97
2022-09-06T04:46:42.119Z,53.16
2022-09-06T04:49:14.964Z,53.28
2022-09-06T04:51:49.038Z,53.49
2022-09-06T04:54:21.825Z,53.46
2022-09-06T04:56:54.592Z,53.67
2022-09-06T04:59:27.523Z,53.50
2022-09-06T05:02:00.145Z,53.45
2022-09-06T05:04:33.086Z,53.74
2022-09-06T05:07:07.605Z,53.82
2022-09-06T05:09:40.297Z,54.21
2022-09-06T05:12:12.932Z,54.04
2022-09-06T05:14:45.837Z,54.33
2022-09-06T05:17:18.461Z,54.26
2022-09-06T05:19:51.332Z,54.28
2022-09-06T05:22:25.472Z,53.84
2022-09-06T05:24:58.123Z,54.18
2022-09-06T05:27:30.717Z,54.40
2022-09-06T05:30:04.388Z,54.59
2022-09-06T05:32:37.019Z,54.54
2022-09-06T05:35:10.196Z,54.34
2022-09-06T05:37:44.185Z,54.17
2022-09-06T05:40:16.912Z,54.33
2022-09-06T05:42:49.675Z,53.86
2022-09-06T05:45:22.882Z,53.99
2022-09-06T05:47:55.555Z,54.16
2022-09-06T05:50:28.453Z,54.22
2022-09-06T05:53:02.390Z,54.13
2022-09-06T05:55:35.090Z,54.43
2022-09-06T05:58:07.771Z,54.11
2022-09-06T06:00:40.446Z,54.41
2022-09-06T06:03:13.053Z,54.60
2022-09-06T06:05:47.618Z,54.65
2022-09-06T06:08:21.642Z,54.52
2022-09-06T06:10:54.353Z,54.51
2022-09-06T06:13:29.703Z,54.57
2022-09-06T06:16:03.539Z,54.34
2022-09-06T06:18:36.628Z,54.53
2022-09-06T06:21:10.306Z,54.42
2022-09-06T06:23:46.464Z,54.41
2022-09-06T06:26:20.214Z,54.52
2022-09-06T06:28:53.552Z,54.60
2022-09-06T06:31:26.386Z,54.10
2022-09-06T06:33:59.690Z,54.65
2022-09-06T06:36:34.646Z,54.61
2022-09-06T06:39:09.465Z,54.28
2022-09-06T06:41:42.157Z,54.23
2022-09-06T06:44:32.089Z,54.85
2022-09-06T06:47:05.284Z,54.86
2022-09-06T06:49:37.963Z,54.64
2022-09-06T06:52:10.677Z,55.35
2022-09-06T06:54:44.756Z,54.30
2022-09-06T06:57:17.528Z,54.81
2022-09-06T06:59:50.792Z,54.48
2022-09-06T07:02:23.538Z,54.35
2022-09-06T07:04:56.230Z,55.66
2022-09-06T07:12:56.446Z,55.79
2022-09-06T07:15:29.145Z,55.24
2022-09-06T07:18:02.998Z,55.97
2022-09-06T07:26:24.150Z,55.92
2022-09-06T07:28:58.360Z,55.96
2022-09-06T07:34:26.186Z,55.50
2022-09-06T07:36:58.867Z,56.88
2022-09-06T07:39:32.717Z,55.64
2022-09-06T07:42:07.459Z,55.80
2022-09-06T07:44:40.322Z,55.34
2022-09-06T07:55:39.490Z,56.40
2022-09-06T07:58:13.585Z,55.52
2022-09-06T08:00:46.419Z,55.04
2022-09-06T08:03:19.199Z,54.67
2022-09-06T08:06:08.507Z,54.75
2022-09-06T08:11:31.334Z,54.74
2022-09-06T08:14:07.247Z,54.82
2022-09-06T08:16:39.996Z,55.01
2022-09-06T08:19:12.716Z,55.12
2022-09-06T08:21:45.856Z,55.17
2022-09-06T08:24:18.629Z,55.09
2022-09-06T08:26:51.380Z,55.04
2022-09-06T08:29:25.955Z,55.83
2022-09-06T08:31:58.831Z,55.36
2022-09-06T08:34:31.607Z,55.23
2022-09-06T08:37:04.262Z,55.91
2022-09-06T08:39:37.018Z,55.49
2022-09-06T08:42:12.088Z,55.43
2022-09-06T08:47:25.079Z,54.46
2022-09-06T08:50:01.643Z,55.80
2022-09-06T08:53:17.280Z,55.28
2022-09-06T08:55:54.906Z,55.48
2022-09-06T08:58:49.179Z,55.53
2022-09-06T09:01:28.492Z,55.41
2022-09-06T09:04:05.982Z,55.10
2022-09-06T09:06:39.624Z,54.46
2022-09-06T09:09:16.399Z,54.54
2022-09-06T09:11:52.101Z,54.86
2022-09-06T09:14:28.673Z,55.09
2022-09-06T09:17:07.074Z,55.02
2022-09-06T09:19:41.959Z,53.65
2022-09-06T09:22:18.937Z,54.19
2022-09-06T09:24:53.112Z,54.77
2022-09-06T09:27:29.185Z,54.28
2022-09-06T09:33:00.226Z,54.49
2022-09-06T09:35:36.222Z,52.64
2022-09-06T09:38:11.933Z,55.09
2022-09-06T09:40:51.703Z,54.39
2022-09-06T09:43:26.191Z,53.54
2022-09-06T09:46:17.261Z,53.98
2022-09-06T09:49:12.622Z,53.86
2022-09-06T09:51:46.735Z,53.02
2022-09-06T09:54:33.256Z,53.29
2022-09-06T09:57:11.869Z,53.71
2022-09-06T09:59:48.870Z,53.92
2022-09-06T10:02:26.760Z,53.71
2022-09-06T10:05:09.306Z,53.82
2022-09-06T10:07:45.155Z,53.35
2022-09-06T10:10:24.062Z,53.64
2022-09-06T10:13:11.644Z,53.18
2022-09-06T10:15:50.111Z,53.60
2022-09-06T10:18:31.687Z,52.51
2022-09-06T10:21:07.245Z,53.04
2022-09-06T10:26:57.301Z,52.07
2022-09-06T10:29:40.336Z,52.61
2022-09-06T10:32:22.162Z,52.02
2022-09-06T10:35:11.009Z,51.89
2022-09-06T10:37:53.108Z,52.06
2022-09-06T10:40:34.689Z,51.93
2022-09-06T10:43:14.382Z,52.88
2022-09-06T10:45:57.881Z,52.89
2022-09-06T10:48:32.945Z,52.46
2022-09-06T10:51:18.859Z,52.72
2022-09-06T10:53:58.319Z,51.27
2022-09-06T10:56:38.744Z,51.33
2022-09-06T11:02:21.853Z,49.35
2022-09-06T11:10:55.487Z,47.72
2022-09-06T11:13:29.355Z,48.11
2022-09-06T11:16:06.866Z,47.03
2022-09-06T11:18:48.134Z,47.27
2022-09-06T11:21:45.931Z,48.50
2022-09-06T11:24:32.029Z,49.10
2022-09-06T11:27:13.551Z,47.94
2022-09-06T11:29:56.237Z,47.23
2022-09-06T11:32:34.393Z,48.45
2022-09-06T11:35:10.186Z,47.93
2022-09-06T11:37:45.182Z,48.02
2022-09-06T11:40:27.116Z,47.73
2022-09-06T11:43:16.397Z,49.32
2022-09-06T11:45:51.263Z,47.80
2022-09-06T11:48:37.467Z,48.23
2022-09-06T11:51:12.348Z,47.83
2022-09-06T11:54:23.136Z,47.37
2022-09-06T11:57:00.598Z,46.95
2022-09-06T11:59:41.632Z,46.06
2022-09-06T12:02:33.063Z,47.69
2022-09-06T12:05:15.404Z,46.65
2022-09-06T12:08:30.920Z,45.17
2022-09-06T12:11:23.242Z,44.65
2022-09-06T12:14:03.240Z,44.53
2022-09-06T12:17:09.666Z,43.23
2022-09-06T12:19:46.664Z,44.10
2022-09-06T12:23:01.866Z,43.07
2022-09-06T12:25:56.353Z,43.12
2022-09-06T12:28:49.724Z,44.45
2022-09-06T12:31:30.145Z,43.09
2022-09-06T12:34:09.497Z,43.52
2022-09-06T12:36:52.326Z,42.65
2022-09-06T12:39:25.155Z,42.14
2022-09-06T12:42:01.348Z,42.60
2022-09-06T12:44:36.504Z,42.16
2022-09-06T12:47:13.729Z,40.68
2022-09-06T12:49:46.382Z,41.24
2022-09-06T12:52:20.765Z,41.91
2022-09-06T12:54:53.370Z,41.48
2022-09-06T12:57:26.964Z,40.92
2022-09-06T12:59:59.681Z,39.74
2022-09-06T13:02:38.843Z,40.45
2022-09-06T13:05:14.761Z,39.50
2022-09-06T13:07:51.942Z,41.01
2022-09-06T13:10:27.225Z,40.31
2022-09-06T13:13:01.803Z,39.28
2022-09-06T13:15:34.722Z,39.00
2022-09-06T13:18:32.562Z,38.68
2022-09-06T13:21:08.172Z,37.71
2022-09-06T13:23:44.108Z,38.24
2022-09-06T13:26:32.495Z,39.90
2022-09-06T13:29:13.205Z,39.56
2022-09-06T13:31:47.459Z,39.90
2022-09-06T13:34:22.190Z,39.85
2022-09-06T13:36:56.889Z,39.73
2022-09-06T13:39:33.338Z,39.84
2022-09-06T13:42:08.265Z,40.42
2022-09-06T13:44:41.406Z,40.44
2022-09-06T13:47:14.053Z,40.94
2022-09-06T13:49:47.225Z,41.26
2022-09-06T13:52:19.942Z,41.10
2022-09-06T13:54:53.928Z,40.41
2022-09-06T13:57:26.572Z,40.61
2022-09-06T13:59:59.109Z,39.06
2022-09-06T14:02:32.390Z,38.91
2022-09-06T14:05:06.265Z,39.53
2022-09-06T14:07:38.904Z,40.28
2022-09-06T14:10:12.787Z,39.10
2022-09-06T14:12:45.575Z,38.52
2022-09-06T14:15:19.203Z,37.44
2022-09-06T14:17:52.155Z,36.78
2022-09-06T14:20:24.862Z,36.51
2022-09-06T14:22:57.901Z,35.36
2022-09-06T14:25:32.233Z,35.86
2022-09-06T14:28:05.217Z,35.11
2022-09-06T14:30:38.483Z,35.35
2022-09-06T14:33:11.179Z,34.69
2022-09-06T14:35:43.900Z,36.97
2022-09-06T14:38:16.777Z,35.14
2022-09-06T14:40:50.901Z,35.40
2022-09-06T14:43:23.587Z,35.34
2022-09-06T14:45:58.813Z,35.36
2022-09-06T14:48:32.181Z,35.34
2022-09-06T14:51:09.657Z,34.86
2022-09-06T14:53:43.335Z,36.17
2022-09-06T14:56:17.962Z,35.22
2022-09-06T14:58:50.683Z,36.52
2022-09-06T15:01:25.716Z,36.64
2022-09-06T15:04:01.978Z,37.08
2022-09-06T15:06:37.975Z,35.73
2022-09-06T15:09:11.315Z,35.37
2022-09-06T15:11:48.035Z,35.69
2022-09-06T15:14:23.455Z,34.73
2022-09-06T15:17:00.327Z,35.03
2022-09-06T15:19:36.281Z,35.08
2022-09-06T15:22:09.233Z,35.15
2022-09-06T15:24:42.445Z,34.77
2022-09-06T15:27:16.438Z,35.38
2022-09-06T15:29:49.294Z,35.85
2022-09-06T15:32:22.815Z,36.39
2022-09-06T15:34:55.449Z,36.29
2022-09-06T15:37:28.384Z,36.51
2022-09-06T15:40:01.213Z,36.14
2022-09-06T15:42:35.232Z,36.50
2022-09-06T15:45:09.663Z,36.98
2022-09-06T15:47:44.270Z,36.49
2022-09-06T15:50:29.140Z,36.41
2022-09-06T15:53:09.531Z,37.38
2022-09-06T15:55:56.951Z,36.91
2022-09-06T15:58:32.035Z,36.86
2022-09-06T16:01:07.065Z,36.50
2022-09-06T16:03:42.048Z,36.84
2022-09-06T16:08:59.913Z,35.67
2022-09-06T16:11:35.613Z,35.88
2022-09-06T16:14:13.085Z,36.09
2022-09-06T16:16:46.582Z,36.41
2022-09-06T16:19:19.470Z,36.42
2022-09-06T16:21:52.226Z,36.40
2022-09-06T16:24:25.075Z,36.62
2022-09-06T16:26:57.858Z,36.67
2022-09-06T16:29:31.820Z,36.70
2022-09-06T16:32:04.668Z,36.72
2022-09-06T16:34:38.248Z,36.83
2022-09-06T16:37:10.935Z,37.15
2022-09-06T16:39:44.373Z,37.11
2022-09-06T16:42:17.094Z,37.29
2022-09-06T16:44:52.769Z,37.31
2022-09-06T16:47:25.505Z,37.32
2022-09-06T16:49:58.158Z,37.44
2022-09-06T16:52:30.922Z,37.52
2022-09-06T16:55:03.443Z,37.41
2022-09-06T16:57:36.451Z,37.54
2022-09-06T17:00:13.163Z,37.80
2022-09-06T17:02:47.677Z,38.05
2022-09-06T17:05:20.453Z,38.04
2022-09-06T17:07:53.809Z,38.27
2022-09-06T17:10:27.092Z,38.08
2022-09-06T17:12:59.701Z,38.12
2022-09-06T17:15:54.642Z,38.42
2022-09-06T17:18:26.664Z,38.30
2022-09-06T17:21:02.057Z,38.40
2022-09-06T17:23:35.776Z,38.72
2022-09-06T17:26:08.758Z,38.84
2022-09-06T17:28:41.643Z,39.10
2022-09-06T17:31:16.430Z,38.98
2022-09-06T17:33:49.682Z,39.04
2022-09-06T17:36:24.901Z,39.20
2022-09-06T17:39:02.034Z,39.27
2022-09-06T17:41:37.726Z,39.62
2022-09-06T17:44:12.671Z,39.78
2022-09-06T17:47:09.128Z,39.59
2022-09-06T17:49:40.289Z,39.53
2022-09-06T17:52:13.661Z,40.11
2022-09-06T17:54:46.932Z,40.67
2022-09-06T17:57:19.611Z,41.13
2022-09-06T17:59:52.468Z,41.08
2022-09-06T18:02:26.533Z,40.90
2022-09-06T18:04:59.399Z,40.97
2022-09-06T18:07:32.279Z,40.87
2022-09-06T18:10:05.594Z,41.10
2022-09-06T18:12:38.884Z,41.06
2022-09-06T18:15:11.850Z,40.82
2022-09-06T18:17:46.488Z,41.21
2022-09-06T18:20:19.248Z,41.49
2022-09-06T18:22:52.232Z,41.48
2022-09-06T18:25:25.006Z,41.83
2022-09-06T18:27:57.571Z,41.71
2022-09-06T18:30:30.671Z,41.50
2022-09-06T18:33:05.492Z,41.70
2022-09-06T18:35:41.704Z,41.60
2022-09-06T18:38:14.403Z,41.92
2022-09-06T18:40:52.853Z,42.37
2022-09-06T18:43:29.451Z,41.93
2022-09-06T18:46:03.613Z,42.22
2022-09-06T18:48:39.148Z,42.10
2022-09-06T18:51:13.844Z,42.45
2022-09-06T18:53:47.052Z,42.48
2022-09-06T18:56:20.549Z,42.70
2022-09-06T18:58:55.569Z,42.51
2022-09-06T19:01:30.510Z,42.52
2022-09-06T19:04:14.624Z,42.79
2022-09-06T19:06:51.055Z,42.51
2022-09-06T19:09:24.293Z,43.08
2022-09-06T19:11:57.016Z,43.01
2022-09-06T19:14:30.130Z,42.91
2022-09-06T19:17:02.824Z,42.88
2022-09-06T19:19:37.237Z,43.11
2022-09-06T19:22:09.952Z,43.49
2022-09-06T19:24:44.368Z,43.56
2022-09-06T19:27:17.171Z,43.49
2022-09-06T19:29:49.956Z,43.47
2022-09-06T19:32:22.676Z,43.61
2022-09-06T19:34:56.769Z,43.68
2022-09-06T19:37:30.420Z,44.00
2022-09-06T19:40:03.929Z,43.80
2022-09-06T19:42:36.816Z,43.50
2022-09-06T19:45:10.475Z,44.02
2022-09-06T19:47:43.197Z,44.25
2022-09-06T19:50:18.016Z,44.33
2022-09-06T19:52:50.866Z,44.08
2022-09-06T19:55:23.528Z,44.12
2022-09-06T19:57:58.485Z,44.17
2022-09-06T20:00:35.636Z,44.46
2022-09-06T20:03:09.798Z,44.43
2022-09-06T20:05:43.932Z,44.63
2022-09-06T20:08:16.705Z,45.08
2022-09-06T20:10:52.797Z,44.41
2022-09-06T20:13:26.380Z,44.79
2022-09-06T20:15:59.660Z,44.98
2022-09-06T20:18:32.463Z,45.15
2022-09-06T20:21:07.325Z,44.97
2022-09-06T20:23:40.175Z,45.02
2022-09-06T20:26:15.030Z,45.42
2022-09-06T20:28:48.952Z,45.59
2022-09-06T20:31:22.178Z,46.10
2022-09-06T20:33:55.218Z,46.18
2022-09-06T20:36:30.298Z,46.10
2022-09-06T20:39:03.272Z,46.16
2022-09-06T20:41:37.168Z,46.63
2022-09-06T20:44:10.061Z,48.55
2022-09-06T20:46:42.787Z,48.54
2022-09-06T20:49:15.819Z,46.94
2022-09-06T20:51:49.994Z,46.66
2022-09-06T20:54:22.868Z,46.62
2022-09-06T20:56:56.066Z,46.78
2022-09-06T20:59:31.200Z,47.05
2022-09-06T21:02:04.129Z,47.08
2022-09-06T21:04:37.148Z,47.33
2022-09-06T21:07:11.489Z,47.68
2022-09-06T21:09:44.171Z,47.96
2022-09-06T21:12:16.943Z,48.73
2022-09-06T21:14:49.745Z,49.06
2022-09-06T21:17:22.730Z,49.08
2022-09-06T21:19:55.512Z,49.33
2022-09-06T21:22:29.558Z,49.82
2022-09-06T21:25:02.354Z,50.05
2022-09-06T21:27:35.275Z,50.06
2022-09-06T21:30:08.734Z,49.66
2022-09-06T21:32:41.697Z,49.27
2022-09-06T21:35:14.426Z,49.62
2022-09-06T21:37:48.539Z,48.96
2022-09-06T21:40:21.256Z,49.41
2022-09-06T21:42:54.960Z,49.26
2022-09-06T21:45:27.761Z,49.40
2022-09-06T21:48:00.319Z,50.38
2022-09-06T21:50:34.163Z,49.46
2022-09-06T21:53:08.377Z,51.13
2022-09-06T21:55:41.360Z,50.76
2022-09-06T21:58:14.437Z,50.95
2022-09-06T22:00:53.397Z,50.90
2022-09-06T22:03:27.008Z,50.84
2022-09-06T22:06:00.177Z,50.25
2022-09-06T22:08:34.249Z,51.21
2022-09-06T22:11:11.128Z,50.54
2022-09-06T22:13:44.627Z,51.14
2022-09-06T22:16:18.948Z,51.15
2022-09-06T22:18:52.758Z,50.75
2022-09-06T22:21:25.970Z,51.81
2022-09-06T22:24:02.164Z,51.77
2022-09-06T22:26:36.798Z,51.95
2022-09-06T22:29:11.749Z,52.21
2022-09-06T22:31:44.699Z,51.29
2022-09-06T22:34:17.455Z,51.64
2022-09-06T22:36:50.775Z,51.98
2022-09-06T22:39:24.883Z,51.25
2022-09-06T22:42:00.743Z,51.86
2022-09-06T22:44:33.811Z,52.01
2022-09-06T22:47:06.508Z,51.85
2022-09-06T22:49:39.320Z,51.65
2022-09-06T22:52:12.593Z,52.46
2022-09-06T22:54:46.728Z,52.07
2022-09-06T22:57:19.465Z,52.68
2022-09-06T22:59:52.146Z,53.29
2022-09-06T23:02:25.011Z,53.29
2022-09-06T23:04:57.736Z,53.26
2022-09-06T23:07:30.569Z,53.34
2022-09-06T23:10:05.457Z,53.36
2022-09-06T23:12:38.154Z,53.28
2022-09-06T23:15:12.048Z,53.51
2022-09-06T23:17:44.754Z,52.57
2022-09-06T23:20:18.287Z,53.03
2022-09-06T23:22:51.135Z,52.62
2022-09-06T23:25:25.140Z,51.98
2022-09-06T23:27:59.515Z,53.07
2022-09-06T23:30:32.410Z,52.99
2022-09-06T23:33:05.748Z,52.95
2022-09-06T23:35:38.458Z,53.32
2022-09-06T23:38:11.232Z,53.25
2022-09-06T23:40:45.275Z,53.36
2022-09-06T23:43:17.976Z,53.45
2022-09-06T23:45:51.378Z,54.60
2022-09-06T23:48:24.507Z,54.33
2022-09-06T23:50:57.283Z,54.04
2022-09-06T23:53:30.300Z,54.19
2022-09-06T23:56:04.702Z,54.34
2022-09-06T23:58:38.339Z,54.41
